Weather observations for the past three days for
Enid, Enid Woodring Regional Airport
Imperial (Metric)
Date Time (cdt) Wind (mph) Vis. (mi.) Weather Sky Cond. Temperature (ºF) Relative Humidity Wind Chill (°F) Heat Index (°F) Pressure Precipitation (in)
Air Dwpt 6 hour altimeter (in) sea level (mb) 1 hr 3 hr 6 hr
Max. Min.
03 22:35 SE 10 10.00 Fair CLR 82.4 69.8 66% 86 29.89 0.0
03 22:15 SE 13 10.00 Fair CLR 84.2 69.8 62% 88 29.89 0.0
03 21:55 SE 12 10.00 Fair CLR 84.2 69.8 62% 88 29.88 0.0
03 21:15 E 9 10.00 Fair CLR 84.2 69.8 62% 88 29.87 0.0
03 20:45 SE 9 10.00 Fair CLR 86 69.8 59% 91 29.87 0.0
03 19:50 SE 13 10.00 Fair CLR 89.6 68 49% 93 29.85 0.0
03 18:45 SE 17 10.00 Fair CLR 93.2 68 44% 98 29.83 0.0
03 17:45 SE 17 G 24 10.00 Fair CLR 98.6 66.2 35% 103 29.82 0.0
03 16:45 SE 12 G 22 10.00 Fair CLR 100.4 66.2 33% 105 29.82 0.0
03 15:45 SE 12 G 21 10.00 Fair CLR 100.4 64.4 31% 104 29.84 0.0
03 14:50 SE 14 G 18 10.00 Fair CLR 100.4 64.4 31% 104 29.85 0.0
03 13:55 SE 12 10.00 Fair CLR 100.4 66.2 33% 105 29.87 0.0
03 12:55 S 9 G 20 10.00 Fair CLR 96.8 68 39% 102 29.9 0.0
03 11:55 S 12 G 20 10.00 Fair CLR 95 69.8 44% 101 29.92 0.0
03 10:50 S 12 10.00 Fair CLR 89.6 69.8 52% 95 29.94 0.0
03 09:50 S 15 10.00 Fair CLR 86 69.8 59% 91 29.94 0.0
03 08:50 S 14 G 23 10.00 Fair CLR 80.6 69.8 70% 84 29.94 0.0
03 07:50 S 10 10.00 Fair CLR 77 69.8 79% 79 29.94 0.0
03 06:55 S 9 10.00 Fair CLR 71.6 68 88% 29.93 0.0
03 05:55 S 6 10.00 Fair CLR 71.6 68 88% 29.92 0.0
03 05:35 S 7 10.00 Fair CLR 71.6 68 88% 29.92 0.0
03 05:15 S 7 10.00 Fair CLR 73.4 68 83% 29.92 0.0
03 04:55 S 7 10.00 Fair CLR 73.4 68 83% 29.92 0.0
03 04:35 S 6 10.00 Fair CLR 73.4 68 83% 29.92 0.0
03 04:15 S 6 10.00 Fair CLR 73.4 68 83% 29.92 0.0
03 03:35 S 7 10.00 Fair CLR 75.2 66.2 74% 77 29.91 0.0
03 03:15 S 7 10.00 Fair CLR 77 66.2 69% 79 29.91 0.0
03 02:55 S 7 10.00 Fair CLR 78.8 66.2 65% 81 29.91 0.0
03 02:35 S 7 10.00 Fair CLR 80.6 66.2 62% 83 29.91 0.0
03 02:15 S 9 10.00 Fair CLR 80.6 64.4 58% 82 29.91 0.0
03 01:55 S 7 10.00 Fair CLR 78.8 64.4 61% 81 29.91 0.0
03 01:35 S 7 10.00 Fair CLR 78.8 64.4 61% 81 29.91 0.0
03 01:15 S 8 10.00 Fair CLR 77 64.4 65% 79 29.91 0.0
03 00:55 S 5 10.00 Fair CLR 78.8 64.4 61% 81 29.91 0.0
03 00:35 S 6 10.00 Fair CLR 80.6 62.6 54% 82 29.9 0.0
03 00:15 S 7 10.00 Fair CLR 82.4 62.6 51% 83 29.9 0.0
02 23:55 S 7 10.00 Fair CLR 82.4 62.6 51% 83 29.9 0.0
02 23:35 S 8 10.00 Fair CLR 80.6 62.6 54% 82 29.89 0.0
02 23:15 S 7 10.00 Fair CLR 82.4 62.6 51% 83 29.89 0.0
02 22:55 S 7 10.00 Fair CLR 84.2 62.6 48% 85 29.9 0.0
02 22:35 SE 9 10.00 Fair CLR 86 62.6 46% 87 29.9 0.0
02 22:15 SE 9 10.00 Fair CLR 86 62.6 46% 87 29.9 0.0
02 21:55 SE 8 10.00 Fair CLR 86 62.6 46% 87 29.89 0.0
02 21:35 SE 8 10.00 Fair CLR 86 62.6 46% 87 29.89 0.0
02 21:15 SE 8 10.00 Fair CLR 86 62.6 46% 87 29.88 0.0
02 20:55 SE 10 10.00 Fair CLR 87.8 62.6 43% 88 29.88 0.0
02 19:50 SE 10 10.00 Fair CLR 93.2 62.6 36% 94 29.87 0.0
02 18:45 SE 16 G 20 10.00 Fair CLR 98.6 62.6 31% 100 29.87 0.0
02 17:50 S 13 10.00 Fair CLR 100.4 60.8 27% 101 29.97 0.0
02 16:50 SE 14 10.00 A Few Clouds FEW100 100.4 60.8 27% 101 29.88 0.0
02 15:55 S 14 10.00 Partly Cloudy SCT100 104 59 23% 104 29.89 0.0
02 14:55 SE 14 G 17 10.00 Partly Cloudy SCT080 100.4 62.6 29% 102 29.92 0.0
02 13:59 S 12 10.00 Partly Cloudy SCT120 100.4 64.4 31% 104 29.95 0.0
02 12:47 S 13 G 23 10.00 Fair CLR 98.6 66.2 35% 103 29.98 0.0
02 11:46 S 17 G 25 10.00 Fair CLR 96.8 66.2 37% 100 30 0.0
02 10:49 S 15 G 24 10.00 Fair CLR 91.4 66.2 44% 94 30.01 0.0
02 09:47 S 14 10.00 Fair CLR 89.6 66.2 46% 92 30.01 0.0
02 08:46 S 9 10.00 Fair CLR 84.2 66.2 55% 87 30.02 0.0
02 06:54 S 5 10.00 Clear SKC 71.6 64.4 78% 29.98 0.0
02 05:35 Calm 10.00 Fair CLR 69.8 64.4 83% 29.98 0.0
02 05:15 Calm 10.00 Fair CLR 71.6 64.4 78% 29.97 0.0
02 04:55 Calm 10.00 Fair CLR 71.6 62.6 73% 29.97 0.0
02 04:35 Calm 10.00 Fair CLR 69.8 62.6 78% 29.97 0.0
02 04:15 Calm 10.00 Fair CLR 69.8 62.6 78% 29.97 0.0
02 03:55 Calm 10.00 Fair CLR 71.6 62.6 73% 29.96 0.0
02 03:35 Calm 10.00 Fair CLR 69.8 62.6 78% 29.96 0.0
02 03:15 Calm 10.00 Fair CLR 69.8 62.6 78% 29.96 0.0
02 02:55 Calm 10.00 Fair CLR 69.8 62.6 78% 29.96 0.0
02 02:35 Calm 10.00 Fair CLR 69.8 62.6 78% 29.96 0.0
02 02:15 Calm 10.00 Fair CLR 71.6 62.6 73% 29.96 0.0
02 01:55 N 3 10.00 Fair CLR 71.6 62.6 73% 29.96 0.0
02 01:35 Calm 10.00 Fair CLR 71.6 62.6 73% 29.96 0.0
02 01:15 Calm 10.00 Fair CLR 71.6 60.8 69% 29.96 0.0
02 00:55 SE 3 10.00 Fair CLR 73.4 60.8 65% 29.96 0.0
02 00:35 Calm 10.00 Fair CLR 73.4 60.8 65% 29.96 0.0
02 00:15 Calm 10.00 Fair CLR 73.4 60.8 65% 29.96 0.0
01 23:55 Calm 10.00 Fair CLR 73.4 60.8 65% 29.96 0.0
01 23:35 Calm 10.00 Fair CLR 75.2 60.8 61% 77 29.96 0.0
01 23:15 N 3 10.00 Fair CLR 77 60.8 57% 79 29.96 0.0
01 22:55 N 3 10.00 Fair CLR 77 59 54% 79 29.96 0.0
01 22:35 N 3 10.00 Fair CLR 77 59 54% 79 29.96 0.0
01 22:15 N 3 10.00 Fair CLR 77 59 54% 79 29.95 0.0
01 21:55 E 3 10.00 Fair CLR 78.8 59 51% 80 29.94 0.0
01 21:35 Calm 10.00 Fair CLR 78.8 59 51% 80 29.93 0.0
01 21:15 E 3 10.00 Fair CLR 80.6 59 48% 81 29.92 0.0
01 20:50 SE 8 10.00 Partly Cloudy SCT120 84.2 59 43% 84 29.92 0.0
01 19:50 SE 8 10.00 Partly Cloudy SCT120 91.4 57.2 32% 90 29.91 0.0
01 18:50 SE 12 10.00 Partly Cloudy SCT100 98.6 55.4 24% 97 29.92 0.0
01 17:50 S 16 10.00 Partly Cloudy SCT100 100.4 55.4 22% 99 29.92 0.0
01 16:50 S 13 G 22 10.00 Partly Cloudy SCT120 104 55.4 20% 103 29.92 0.0
01 15:46 S 13 G 17 10.00 Partly Cloudy SCT095 100.4 57.2 24% 100 29.95 0.0
01 14:47 S 12 G 22 10.00 Partly Cloudy SCT095 100.4 57.2 24% 100 29.97 0.0
01 13:45 S 15 G 21 10.00 Partly Cloudy SCT095 100.4 57.2 24% 100 29.99 0.0
01 12:47 SW 12 10.00 Mostly Cloudy BKN095 96.8 59 28% 96 30.01 0.0
01 11:54 SW 12 G 23 10.00 Fair CLR 96.8 60.8 30% 97 30.03 0.0
01 10:46 S 15 10.00 Fair CLR 93.2 62.6 36% 94 30.04 0.0
01 09:50 S 10 10.00 Fair CLR 89.6 60.8 38% 90 30.04 0.0
01 08:47 S 7 10.00 Fair CLR 80.6 60.8 51% 81 30.05 0.0
01 07:50 Calm 10.00 Fair CLR 73.4 60.8 65% 30.04 0.0
01 06:45 Calm 10.00 Fair CLR 68 59 73% 30.02 0.0
01 05:55 NE 5 10.00 Fair CLR 68 59 73% 30.01 0.0
01 05:35 Calm 10.00 Fair CLR 68 60.8 78% 29.99 0.0
01 05:15 Calm 10.00 Fair CLR 68 59 73% 29.99 0.0
01 04:55 Calm 10.00 Fair CLR 68 60.8 78% 29.99 0.0
01 04:35 Calm 10.00 Fair CLR 68 59 73% 29.99 0.0
01 04:15 Calm 10.00 Fair CLR 68 59 73% 29.99 0.0
01 03:55 Calm 10.00 Fair CLR 68 59 73% 29.98 0.0
01 03:35 Calm 10.00 Fair CLR 69.8 59 69% 29.98 0.0
01 03:15 Calm 10.00 Fair CLR 69.8 59 69% 29.98 0.0
01 02:55 Calm 10.00 Fair CLR 69.8 59 69% 29.97 0.0
01 02:35 Calm 10.00 Fair CLR 69.8 59 69% 29.97 0.0
01 02:15 Calm 10.00 Fair CLR 69.8 59 69% 29.98 0.0
01 01:55 Calm 10.00 Fair CLR 69.8 59 69% 29.98 0.0
01 01:35 Calm 10.00 Fair CLR 73.4 59 61% 29.98 0.0
01 01:15 S 3 10.00 Fair CLR 73.4 59 61% 29.98 0.0
01 00:55 SE 7 10.00 Fair CLR 73.4 59 61% 29.98 0.0
01 00:35 SE 6 10.00 Fair CLR 73.4 59 61% 29.98 0.0
01 00:15 S 5 10.00 Fair CLR 75.2 59 57% 78 29.98 0.0
31 23:55 Calm 10.00 Fair CLR 77 59 54% 79 29.98 0.0
31 23:35 E 6 10.00 Fair CLR 77 59 54% 79 29.97 0.0
31 23:15 S 6 10.00 Fair CLR 78.8 59 51% 80 29.97 0.0
Date Time (cdt) Wind (mph) Vis. (mi.) Weather Sky Cond. Air Dwpt Max. Min. Relative Humidity Wind Chill (°F) Heat Index (°F) altimeter (in) sea level (mb) 1 hr 3 hr 6 hr
6 hour
Temperature (ºF) Pressure Precipitation (in)